sensor_id;sensor_type;location;lat;lon;timestamp;temperature;humidity
4245;DHT22;2136;48.502;9.194;2024-01-30T00:00:06;4.90;74.10
4245;DHT22;2136;48.502;9.194;2024-01-30T00:02:34;4.90;74.20
4245;DHT22;2136;48.502;9.194;2024-01-30T00:05:02;4.80;73.90
4245;DHT22;2136;48.502;9.194;2024-01-30T00:07:30;4.80;73.70
4245;DHT22;2136;48.502;9.194;2024-01-30T00:09:56;4.80;73.60
4245;DHT22;2136;48.502;9.194;2024-01-30T00:12:23;4.70;73.30
4245;DHT22;2136;48.502;9.194;2024-01-30T00:14:50;4.70;73.30
4245;DHT22;2136;48.502;9.194;2024-01-30T00:17:17;4.70;74.10
4245;DHT22;2136;48.502;9.194;2024-01-30T00:19:44;4.60;73.50
4245;DHT22;2136;48.502;9.194;2024-01-30T00:22:12;4.60;73.50
4245;DHT22;2136;48.502;9.194;2024-01-30T00:24:39;4.60;73.80
4245;DHT22;2136;48.502;9.194;2024-01-30T00:27:06;4.60;73.70
4245;DHT22;2136;48.502;9.194;2024-01-30T00:29:33;4.50;73.60
4245;DHT22;2136;48.502;9.194;2024-01-30T00:32:00;4.50;73.50
4245;DHT22;2136;48.502;9.194;2024-01-30T00:34:26;4.60;73.80
4245;DHT22;2136;48.502;9.194;2024-01-30T00:36:53;4.50;73.80
4245;DHT22;2136;48.502;9.194;2024-01-30T00:39:21;4.40;73.70
4245;DHT22;2136;48.502;9.194;2024-01-30T00:41:48;4.40;73.90
4245;DHT22;2136;48.502;9.194;2024-01-30T00:44:15;4.40;74.00
4245;DHT22;2136;48.502;9.194;2024-01-30T00:46:42;4.40;74.50
4245;DHT22;2136;48.502;9.194;2024-01-30T00:49:10;4.40;74.60
4245;DHT22;2136;48.502;9.194;2024-01-30T00:51:37;4.40;74.90
4245;DHT22;2136;48.502;9.194;2024-01-30T00:54:04;4.40;75.10
4245;DHT22;2136;48.502;9.194;2024-01-30T00:56:33;4.40;75.50
4245;DHT22;2136;48.502;9.194;2024-01-30T00:59:00;4.40;75.70
4245;DHT22;2136;48.502;9.194;2024-01-30T01:01:27;4.50;76.10
4245;DHT22;2136;48.502;9.194;2024-01-30T01:03:54;4.50;76.40
4245;DHT22;2136;48.502;9.194;2024-01-30T01:06:21;4.50;76.70
4245;DHT22;2136;48.502;9.194;2024-01-30T01:08:47;4.50;76.50
4245;DHT22;2136;48.502;9.194;2024-01-30T01:11:15;4.60;76.50
4245;DHT22;2136;48.502;9.194;2024-01-30T01:13:43;4.60;76.40
4245;DHT22;2136;48.502;9.194;2024-01-30T01:16:10;4.60;76.30
4245;DHT22;2136;48.502;9.194;2024-01-30T01:18:36;4.60;76.20
4245;DHT22;2136;48.502;9.194;2024-01-30T01:21:03;4.50;75.80
4245;DHT22;2136;48.502;9.194;2024-01-30T01:23:30;4.50;75.70
4245;DHT22;2136;48.502;9.194;2024-01-30T01:25:57;4.50;75.60
4245;DHT22;2136;48.502;9.194;2024-01-30T01:28:25;4.60;75.70
4245;DHT22;2136;48.502;9.194;2024-01-30T01:30:53;4.50;75.90
4245;DHT22;2136;48.502;9.194;2024-01-30T01:33:24;4.40;75.90
4245;DHT22;2136;48.502;9.194;2024-01-30T01:35:51;4.40;75.80
4245;DHT22;2136;48.502;9.194;2024-01-30T01:38:18;4.40;75.80
4245;DHT22;2136;48.502;9.194;2024-01-30T01:40:45;4.40;75.90
4245;DHT22;2136;48.502;9.194;2024-01-30T01:43:12;4.40;75.80
4245;DHT22;2136;48.502;9.194;2024-01-30T01:45:39;4.40;76.10
4245;DHT22;2136;48.502;9.194;2024-01-30T01:48:07;4.40;76.30
4245;DHT22;2136;48.502;9.194;2024-01-30T01:50:36;4.40;76.20
4245;DHT22;2136;48.502;9.194;2024-01-30T01:53:03;4.40;76.10
4245;DHT22;2136;48.502;9.194;2024-01-30T01:55:31;4.40;76.00
4245;DHT22;2136;48.502;9.194;2024-01-30T01:57:58;4.30;76.00
4245;DHT22;2136;48.502;9.194;2024-01-30T02:00:25;4.30;76.00
4245;DHT22;2136;48.502;9.194;2024-01-30T02:02:54;4.30;76.00
4245;DHT22;2136;48.502;9.194;2024-01-30T02:05:22;4.30;75.70
4245;DHT22;2136;48.502;9.194;2024-01-30T02:07:50;4.20;75.20
4245;DHT22;2136;48.502;9.194;2024-01-30T02:10:17;4.20;75.10
4245;DHT22;2136;48.502;9.194;2024-01-30T02:12:44;4.20;75.90
4245;DHT22;2136;48.502;9.194;2024-01-30T02:15:13;4.30;75.50
4245;DHT22;2136;48.502;9.194;2024-01-30T02:17:40;4.30;75.50
4245;DHT22;2136;48.502;9.194;2024-01-30T02:20:08;4.20;74.90
4245;DHT22;2136;48.502;9.194;2024-01-30T02:22:36;4.20;75.10
4245;DHT22;2136;48.502;9.194;2024-01-30T02:25:04;4.20;74.90
4245;DHT22;2136;48.502;9.194;2024-01-30T02:27:31;4.20;74.70
4245;DHT22;2136;48.502;9.194;2024-01-30T02:29:57;4.20;74.90
4245;DHT22;2136;48.502;9.194;2024-01-30T02:32:24;4.10;75.10
4245;DHT22;2136;48.502;9.194;2024-01-30T02:34:51;4.10;75.10
4245;DHT22;2136;48.502;9.194;2024-01-30T02:37:18;4.10;74.80
4245;DHT22;2136;48.502;9.194;2024-01-30T02:39:46;4.10;74.70
4245;DHT22;2136;48.502;9.194;2024-01-30T02:42:13;4.10;74.50
4245;DHT22;2136;48.502;9.194;2024-01-30T02:44:39;4.10;74.50
4245;DHT22;2136;48.502;9.194;2024-01-30T02:47:06;4.10;74.40
4245;DHT22;2136;48.502;9.194;2024-01-30T02:49:33;4.10;74.20
4245;DHT22;2136;48.502;9.194;2024-01-30T02:52:00;4.10;73.90
4245;DHT22;2136;48.502;9.194;2024-01-30T02:54:26;4.10;73.80
4245;DHT22;2136;48.502;9.194;2024-01-30T02:56:54;4.10;73.70
4245;DHT22;2136;48.502;9.194;2024-01-30T02:59:21;4.10;73.60
4245;DHT22;2136;48.502;9.194;2024-01-30T03:01:48;4.10;73.80
4245;DHT22;2136;48.502;9.194;2024-01-30T03:04:15;4.10;73.70
4245;DHT22;2136;48.502;9.194;2024-01-30T03:06:45;4.10;73.70
4245;DHT22;2136;48.502;9.194;2024-01-30T03:09:12;4.00;73.90
4245;DHT22;2136;48.502;9.194;2024-01-30T03:11:39;4.00;73.60
4245;DHT22;2136;48.502;9.194;2024-01-30T03:14:07;3.90;73.10
4245;DHT22;2136;48.502;9.194;2024-01-30T03:16:36;3.80;73.10
4245;DHT22;2136;48.502;9.194;2024-01-30T03:19:03;3.90;73.30
4245;DHT22;2136;48.502;9.194;2024-01-30T03:21:30;3.80;73.20
4245;DHT22;2136;48.502;9.194;2024-01-30T03:23:57;3.80;73.40
4245;DHT22;2136;48.502;9.194;2024-01-30T03:26:24;3.70;73.30
4245;DHT22;2136;48.502;9.194;2024-01-30T03:28:51;3.60;73.60
4245;DHT22;2136;48.502;9.194;2024-01-30T03:31:19;3.60;74.00
4245;DHT22;2136;48.502;9.194;2024-01-30T03:33:46;3.70;74.40
4245;DHT22;2136;48.502;9.194;2024-01-30T03:36:14;3.60;74.50
4245;DHT22;2136;48.502;9.194;2024-01-30T03:38:41;3.60;74.80
4245;DHT22;2136;48.502;9.194;2024-01-30T03:41:08;3.50;75.00
4245;DHT22;2136;48.502;9.194;2024-01-30T03:43:35;3.60;75.40
4245;DHT22;2136;48.502;9.194;2024-01-30T03:46:03;3.50;75.40
4245;DHT22;2136;48.502;9.194;2024-01-30T03:48:31;3.50;75.70
4245;DHT22;2136;48.502;9.194;2024-01-30T03:50:58;3.50;75.80
4245;DHT22;2136;48.502;9.194;2024-01-30T03:53:25;3.50;75.80
4245;DHT22;2136;48.502;9.194;2024-01-30T03:55:52;3.50;75.80
4245;DHT22;2136;48.502;9.194;2024-01-30T03:58:18;3.40;75.80
4245;DHT22;2136;48.502;9.194;2024-01-30T04:00:45;3.40;75.90
4245;DHT22;2136;48.502;9.194;2024-01-30T04:03:12;3.40;75.80
4245;DHT22;2136;48.502;9.194;2024-01-30T04:05:40;3.40;75.90
4245;DHT22;2136;48.502;9.194;2024-01-30T04:08:07;3.30;75.80
4245;DHT22;2136;48.502;9.194;2024-01-30T04:10:34;3.40;76.00
4245;DHT22;2136;48.502;9.194;2024-01-30T04:13:01;3.30;76.00
4245;DHT22;2136;48.502;9.194;2024-01-30T04:15:28;3.30;76.10
4245;DHT22;2136;48.502;9.194;2024-01-30T04:17:57;3.30;75.80
4245;DHT22;2136;48.502;9.194;2024-01-30T04:20:24;3.30;75.60
4245;DHT22;2136;48.502;9.194;2024-01-30T04:22:52;3.20;75.90
4245;DHT22;2136;48.502;9.194;2024-01-30T04:25:19;3.20;76.10
4245;DHT22;2136;48.502;9.194;2024-01-30T04:27:46;3.20;76.60
4245;DHT22;2136;48.502;9.194;2024-01-30T04:30:13;3.20;77.00
4245;DHT22;2136;48.502;9.194;2024-01-30T04:32:40;3.20;77.60
4245;DHT22;2136;48.502;9.194;2024-01-30T04:35:07;3.20;78.50
4245;DHT22;2136;48.502;9.194;2024-01-30T04:37:34;3.30;77.80
4245;DHT22;2136;48.502;9.194;2024-01-30T04:40:02;3.30;77.60
4245;DHT22;2136;48.502;9.194;2024-01-30T04:42:30;3.30;77.80
4245;DHT22;2136;48.502;9.194;2024-01-30T04:44:57;3.20;77.40
4245;DHT22;2136;48.502;9.194;2024-01-30T04:47:24;3.20;77.50
4245;DHT22;2136;48.502;9.194;2024-01-30T04:49:51;3.20;78.30
4245;DHT22;2136;48.502;9.194;2024-01-30T04:52:18;3.20;78.30
4245;DHT22;2136;48.502;9.194;2024-01-30T04:54:45;3.20;79.50
4245;DHT22;2136;48.502;9.194;2024-01-30T04:57:13;3.20;79.00
4245;DHT22;2136;48.502;9.194;2024-01-30T04:59:40;3.30;79.30
4245;DHT22;2136;48.502;9.194;2024-01-30T05:02:07;3.30;79.30
4245;DHT22;2136;48.502;9.194;2024-01-30T05:04:33;3.30;79.50
4245;DHT22;2136;48.502;9.194;2024-01-30T05:07:00;3.30;79.60
4245;DHT22;2136;48.502;9.194;2024-01-30T05:09:27;3.30;79.60
4245;DHT22;2136;48.502;9.194;2024-01-30T05:11:54;3.30;79.80
4245;DHT22;2136;48.502;9.194;2024-01-30T05:14:22;3.30;79.80
4245;DHT22;2136;48.502;9.194;2024-01-30T05:16:49;3.40;79.30
4245;DHT22;2136;48.502;9.194;2024-01-30T05:19:16;3.40;79.20
4245;DHT22;2136;48.502;9.194;2024-01-30T05:21:43;3.40;78.80
4245;DHT22;2136;48.502;9.194;2024-01-30T05:24:10;3.40;78.40
4245;DHT22;2136;48.502;9.194;2024-01-30T05:26:37;3.30;77.80
4245;DHT22;2136;48.502;9.194;2024-01-30T05:29:04;3.50;77.80
4245;DHT22;2136;48.502;9.194;2024-01-30T05:31:32;3.30;76.90
4245;DHT22;2136;48.502;9.194;2024-01-30T05:33:59;3.30;76.60
4245;DHT22;2136;48.502;9.194;2024-01-30T05:36:26;3.20;76.50
4245;DHT22;2136;48.502;9.194;2024-01-30T05:38:53;3.20;76.90
4245;DHT22;2136;48.502;9.194;2024-01-30T05:41:20;3.20;77.10
4245;DHT22;2136;48.502;9.194;2024-01-30T05:43:47;3.10;76.90
4245;DHT22;2136;48.502;9.194;2024-01-30T05:46:14;3.10;77.00
4245;DHT22;2136;48.502;9.194;2024-01-30T05:48:42;3.10;77.20
4245;DHT22;2136;48.502;9.194;2024-01-30T05:51:09;3.10;77.30
4245;DHT22;2136;48.502;9.194;2024-01-30T05:53:36;3.00;77.30
4245;DHT22;2136;48.502;9.194;2024-01-30T05:56:03;3.00;77.50
4245;DHT22;2136;48.502;9.194;2024-01-30T05:58:30;3.00;77.70
4245;DHT22;2136;48.502;9.194;2024-01-30T06:00:57;3.00;77.80
4245;DHT22;2136;48.502;9.194;2024-01-30T06:03:24;3.00;77.70
4245;DHT22;2136;48.502;9.194;2024-01-30T06:05:52;2.90;77.20
4245;DHT22;2136;48.502;9.194;2024-01-30T06:08:19;2.90;77.40
4245;DHT22;2136;48.502;9.194;2024-01-30T06:10:46;2.90;77.80
4245;DHT22;2136;48.502;9.194;2024-01-30T06:13:13;2.90;78.10
4245;DHT22;2136;48.502;9.194;2024-01-30T06:15:40;3.00;78.20
4245;DHT22;2136;48.502;9.194;2024-01-30T06:18:07;3.00;78.00
4245;DHT22;2136;48.502;9.194;2024-01-30T06:20:34;3.00;77.70
4245;DHT22;2136;48.502;9.194;2024-01-30T06:23:02;3.00;77.50
4245;DHT22;2136;48.502;9.194;2024-01-30T06:25:29;3.00;77.50
4245;DHT22;2136;48.502;9.194;2024-01-30T06:27:56;3.10;77.30
4245;DHT22;2136;48.502;9.194;2024-01-30T06:30:22;3.00;77.20
4245;DHT22;2136;48.502;9.194;2024-01-30T06:32:49;3.00;77.20
4245;DHT22;2136;48.502;9.194;2024-01-30T06:35:16;3.00;77.30
4245;DHT22;2136;48.502;9.194;2024-01-30T06:37:43;3.00;77.20
4245;DHT22;2136;48.502;9.194;2024-01-30T06:40:12;3.00;77.20
4245;DHT22;2136;48.502;9.194;2024-01-30T06:42:39;3.00;77.30
4245;DHT22;2136;48.502;9.194;2024-01-30T06:45:07;2.90;77.40
4245;DHT22;2136;48.502;9.194;2024-01-30T06:47:34;2.90;77.30
4245;DHT22;2136;48.502;9.194;2024-01-30T06:50:01;2.90;77.40
4245;DHT22;2136;48.502;9.194;2024-01-30T06:52:29;2.90;77.50
4245;DHT22;2136;48.502;9.194;2024-01-30T06:54:55;2.90;77.60
4245;DHT22;2136;48.502;9.194;2024-01-30T06:57:23;2.90;77.90
4245;DHT22;2136;48.502;9.194;2024-01-30T06:59:52;2.80;78.30
4245;DHT22;2136;48.502;9.194;2024-01-30T07:02:22;2.80;78.60
4245;DHT22;2136;48.502;9.194;2024-01-30T07:04:49;2.80;78.60
4245;DHT22;2136;48.502;9.194;2024-01-30T07:07:16;2.90;78.70
4245;DHT22;2136;48.502;9.194;2024-01-30T07:09:43;2.80;78.50
4245;DHT22;2136;48.502;9.194;2024-01-30T07:12:10;2.90;78.60
4245;DHT22;2136;48.502;9.194;2024-01-30T07:14:38;2.90;78.60
4245;DHT22;2136;48.502;9.194;2024-01-30T07:17:05;2.90;78.70
4245;DHT22;2136;48.502;9.194;2024-01-30T07:19:33;3.10;79.00
4245;DHT22;2136;48.502;9.194;2024-01-30T07:22:00;3.00;79.10
4245;DHT22;2136;48.502;9.194;2024-01-30T07:24:27;3.00;79.40
4245;DHT22;2136;48.502;9.194;2024-01-30T07:26:53;3.10;79.30
4245;DHT22;2136;48.502;9.194;2024-01-30T07:29:20;3.20;79.30
4245;DHT22;2136;48.502;9.194;2024-01-30T07:31:49;3.20;79.30
4245;DHT22;2136;48.502;9.194;2024-01-30T07:34:16;3.30;79.30
4245;DHT22;2136;48.502;9.194;2024-01-30T07:36:42;3.30;79.20
4245;DHT22;2136;48.502;9.194;2024-01-30T07:39:09;3.40;79.20
4245;DHT22;2136;48.502;9.194;2024-01-30T07:41:36;3.60;79.30
4245;DHT22;2136;48.502;9.194;2024-01-30T07:44:03;3.50;79.20
4245;DHT22;2136;48.502;9.194;2024-01-30T07:46:30;3.60;79.30
4245;DHT22;2136;48.502;9.194;2024-01-30T07:48:58;3.60;79.20
4245;DHT22;2136;48.502;9.194;2024-01-30T07:51:25;3.70;79.10
4245;DHT22;2136;48.502;9.194;2024-01-30T07:53:53;3.80;79.00
4245;DHT22;2136;48.502;9.194;2024-01-30T07:56:20;3.90;78.90
4245;DHT22;2136;48.502;9.194;2024-01-30T07:58:47;3.90;78.40
4245;DHT22;2136;48.502;9.194;2024-01-30T08:01:15;4.00;78.30
4245;DHT22;2136;48.502;9.194;2024-01-30T08:03:42;4.10;77.90
4245;DHT22;2136;48.502;9.194;2024-01-30T08:06:10;4.40;77.30
4245;DHT22;2136;48.502;9.194;2024-01-30T08:08:37;4.30;76.60
4245;DHT22;2136;48.502;9.194;2024-01-30T08:11:04;4.50;76.10
4245;DHT22;2136;48.502;9.194;2024-01-30T08:13:31;4.60;74.50
4245;DHT22;2136;48.502;9.194;2024-01-30T08:15:57;4.70;73.90
4245;DHT22;2136;48.502;9.194;2024-01-30T08:18:24;4.90;73.30
4245;DHT22;2136;48.502;9.194;2024-01-30T08:20:52;5.00;72.80
4245;DHT22;2136;48.502;9.194;2024-01-30T08:23:20;5.10;72.50
4245;DHT22;2136;48.502;9.194;2024-01-30T08:25:47;5.20;72.00
4245;DHT22;2136;48.502;9.194;2024-01-30T08:28:13;5.40;71.60
4245;DHT22;2136;48.502;9.194;2024-01-30T08:30:40;5.70;71.40
4245;DHT22;2136;48.502;9.194;2024-01-30T08:33:07;5.90;70.30
4245;DHT22;2136;48.502;9.194;2024-01-30T08:35:34;6.20;69.30
4245;DHT22;2136;48.502;9.194;2024-01-30T08:38:01;6.30;68.40
4245;DHT22;2136;48.502;9.194;2024-01-30T08:40:30;6.50;67.30
4245;DHT22;2136;48.502;9.194;2024-01-30T08:42:57;6.50;66.80
4245;DHT22;2136;48.502;9.194;2024-01-30T08:45:24;6.60;66.50
4245;DHT22;2136;48.502;9.194;2024-01-30T08:47:50;6.70;66.10
4245;DHT22;2136;48.502;9.194;2024-01-30T08:50:17;6.70;66.00
4245;DHT22;2136;48.502;9.194;2024-01-30T08:52:44;6.80;65.70
4245;DHT22;2136;48.502;9.194;2024-01-30T08:55:11;6.90;65.30
4245;DHT22;2136;48.502;9.194;2024-01-30T08:57:39;7.00;65.00
4245;DHT22;2136;48.502;9.194;2024-01-30T09:00:07;7.00;64.50
4245;DHT22;2136;48.502;9.194;2024-01-30T09:02:35;7.10;64.30
4245;DHT22;2136;48.502;9.194;2024-01-30T09:05:02;7.10;64.10
4245;DHT22;2136;48.502;9.194;2024-01-30T09:07:29;7.20;64.00
4245;DHT22;2136;48.502;9.194;2024-01-30T09:09:56;7.30;64.00
4245;DHT22;2136;48.502;9.194;2024-01-30T09:12:23;7.40;64.10
4245;DHT22;2136;48.502;9.194;2024-01-30T09:14:51;7.40;64.20
4245;DHT22;2136;48.502;9.194;2024-01-30T09:17:18;7.50;64.00
4245;DHT22;2136;48.502;9.194;2024-01-30T09:19:45;7.70;64.00
4245;DHT22;2136;48.502;9.194;2024-01-30T09:22:12;7.80;63.90
4245;DHT22;2136;48.502;9.194;2024-01-30T09:24:40;8.00;63.80
4245;DHT22;2136;48.502;9.194;2024-01-30T09:27:07;8.10;63.40
4245;DHT22;2136;48.502;9.194;2024-01-30T09:29:34;8.40;63.50
4245;DHT22;2136;48.502;9.194;2024-01-30T09:32:04;8.60;63.20
4245;DHT22;2136;48.502;9.194;2024-01-30T09:34:31;8.90;62.70
4245;DHT22;2136;48.502;9.194;2024-01-30T09:36:58;9.10;62.20
4245;DHT22;2136;48.502;9.194;2024-01-30T09:39:25;9.40;61.50
4245;DHT22;2136;48.502;9.194;2024-01-30T09:42:04;9.50;60.70
4245;DHT22;2136;48.502;9.194;2024-01-30T09:44:32;9.60;60.10
4245;DHT22;2136;48.502;9.194;2024-01-30T09:47:03;9.70;59.50
4245;DHT22;2136;48.502;9.194;2024-01-30T09:49:32;9.70;59.10
4245;DHT22;2136;48.502;9.194;2024-01-30T09:52:00;9.80;58.90
4245;DHT22;2136;48.502;9.194;2024-01-30T09:54:29;9.90;58.80
4245;DHT22;2136;48.502;9.194;2024-01-30T09:56:56;9.90;58.60
4245;DHT22;2136;48.502;9.194;2024-01-30T09:59:23;9.90;58.40
4245;DHT22;2136;48.502;9.194;2024-01-30T10:01:50;10.00;57.40
4245;DHT22;2136;48.502;9.194;2024-01-30T10:04:18;10.10;56.80
4245;DHT22;2136;48.502;9.194;2024-01-30T10:06:46;10.10;56.50
4245;DHT22;2136;48.502;9.194;2024-01-30T10:09:14;10.10;56.60
4245;DHT22;2136;48.502;9.194;2024-01-30T10:11:40;10.20;56.60
4245;DHT22;2136;48.502;9.194;2024-01-30T10:14:07;10.20;56.40
4245;DHT22;2136;48.502;9.194;2024-01-30T10:16:34;10.40;56.50
4245;DHT22;2136;48.502;9.194;2024-01-30T10:19:01;10.50;56.40
4245;DHT22;2136;48.502;9.194;2024-01-30T10:21:29;10.70;56.40
4245;DHT22;2136;48.502;9.194;2024-01-30T10:23:56;11.10;56.00
4245;DHT22;2136;48.502;9.194;2024-01-30T10:26:23;11.50;55.30
4245;DHT22;2136;48.502;9.194;2024-01-30T10:28:50;11.60;54.50
4245;DHT22;2136;48.502;9.194;2024-01-30T10:31:17;11.60;53.90
4245;DHT22;2136;48.502;9.194;2024-01-30T10:33:44;11.60;53.80
4245;DHT22;2136;48.502;9.194;2024-01-30T10:36:13;11.60;53.60
4245;DHT22;2136;48.502;9.194;2024-01-30T10:38:43;11.50;53.60
4245;DHT22;2136;48.502;9.194;2024-01-30T10:41:13;11.50;53.70
4245;DHT22;2136;48.502;9.194;2024-01-30T10:43:42;11.50;53.90
4245;DHT22;2136;48.502;9.194;2024-01-30T10:46:18;11.50;54.00
4245;DHT22;2136;48.502;9.194;2024-01-30T10:48:51;11.60;54.10
4245;DHT22;2136;48.502;9.194;2024-01-30T10:51:22;11.60;54.80
4245;DHT22;2136;48.502;9.194;2024-01-30T10:53:50;11.70;54.10
4245;DHT22;2136;48.502;9.194;2024-01-30T10:56:18;11.80;54.20
4245;DHT22;2136;48.502;9.194;2024-01-30T10:58:47;12.00;54.20
4245;DHT22;2136;48.502;9.194;2024-01-30T11:01:15;12.20;54.00
4245;DHT22;2136;48.502;9.194;2024-01-30T11:03:42;12.30;53.50
4245;DHT22;2136;48.502;9.194;2024-01-30T11:06:11;12.40;53.40
4245;DHT22;2136;48.502;9.194;2024-01-30T11:08:39;12.50;53.30
4245;DHT22;2136;48.502;9.194;2024-01-30T11:11:10;12.60;53.50
4245;DHT22;2136;48.502;9.194;2024-01-30T11:13:37;12.60;53.40
4245;DHT22;2136;48.502;9.194;2024-01-30T11:16:04;12.60;53.10
4245;DHT22;2136;48.502;9.194;2024-01-30T11:18:32;12.60;53.20
4245;DHT22;2136;48.502;9.194;2024-01-30T11:21:00;12.70;53.00
4245;DHT22;2136;48.502;9.194;2024-01-30T11:23:28;12.70;53.00
4245;DHT22;2136;48.502;9.194;2024-01-30T11:25:56;12.70;53.00
4245;DHT22;2136;48.502;9.194;2024-01-30T11:28:24;12.80;53.20
4245;DHT22;2136;48.502;9.194;2024-01-30T11:31:03;12.90;53.00
4245;DHT22;2136;48.502;9.194;2024-01-30T11:33:30;12.90;52.80
4245;DHT22;2136;48.502;9.194;2024-01-30T11:35:58;12.90;52.70
4245;DHT22;2136;48.502;9.194;2024-01-30T11:38:26;12.90;52.80
4245;DHT22;2136;48.502;9.194;2024-01-30T11:40:54;12.90;52.80
4245;DHT22;2136;48.502;9.194;2024-01-30T11:43:21;12.90;52.60
4245;DHT22;2136;48.502;9.194;2024-01-30T11:45:49;12.90;52.50
4245;DHT22;2136;48.502;9.194;2024-01-30T11:48:16;12.90;52.60
4245;DHT22;2136;48.502;9.194;2024-01-30T11:50:43;13.00;53.20
4245;DHT22;2136;48.502;9.194;2024-01-30T11:53:11;13.10;53.30
4245;DHT22;2136;48.502;9.194;2024-01-30T11:55:38;13.20;53.00
4245;DHT22;2136;48.502;9.194;2024-01-30T11:58:05;13.30;52.70
4245;DHT22;2136;48.502;9.194;2024-01-30T12:00:31;13.50;52.70
4245;DHT22;2136;48.502;9.194;2024-01-30T12:03:00;13.50;52.50
4245;DHT22;2136;48.502;9.194;2024-01-30T12:05:27;13.60;52.50
4245;DHT22;2136;48.502;9.194;2024-01-30T12:07:54;13.70;52.40
4245;DHT22;2136;48.502;9.194;2024-01-30T12:10:24;13.80;52.00
4245;DHT22;2136;48.502;9.194;2024-01-30T12:12:51;13.80;51.70
4245;DHT22;2136;48.502;9.194;2024-01-30T12:15:21;13.80;51.60
4245;DHT22;2136;48.502;9.194;2024-01-30T12:17:48;13.80;51.80
4245;DHT22;2136;48.502;9.194;2024-01-30T12:20:18;13.70;51.60
4245;DHT22;2136;48.502;9.194;2024-01-30T12:22:47;13.80;51.80
4245;DHT22;2136;48.502;9.194;2024-01-30T12:25:15;13.70;51.40
4245;DHT22;2136;48.502;9.194;2024-01-30T12:27:44;13.70;51.50
4245;DHT22;2136;48.502;9.194;2024-01-30T12:30:12;13.70;51.80
4245;DHT22;2136;48.502;9.194;2024-01-30T12:32:42;13.70;51.80
4245;DHT22;2136;48.502;9.194;2024-01-30T12:35:10;13.80;52.10
4245;DHT22;2136;48.502;9.194;2024-01-30T12:37:39;13.90;52.30
4245;DHT22;2136;48.502;9.194;2024-01-30T12:40:07;13.70;52.40
4245;DHT22;2136;48.502;9.194;2024-01-30T12:42:35;13.70;51.80
4245;DHT22;2136;48.502;9.194;2024-01-30T12:45:03;13.70;51.60
4245;DHT22;2136;48.502;9.194;2024-01-30T12:47:30;13.80;51.20
4245;DHT22;2136;48.502;9.194;2024-01-30T12:49:57;13.90;51.10
4245;DHT22;2136;48.502;9.194;2024-01-30T12:52:24;14.00;50.90
4245;DHT22;2136;48.502;9.194;2024-01-30T12:54:53;14.10;50.80
4245;DHT22;2136;48.502;9.194;2024-01-30T12:57:19;14.20;50.70
4245;DHT22;2136;48.502;9.194;2024-01-30T12:59:47;14.30;50.50
4245;DHT22;2136;48.502;9.194;2024-01-30T13:02:15;14.40;50.30
4245;DHT22;2136;48.502;9.194;2024-01-30T13:04:42;14.50;50.10
4245;DHT22;2136;48.502;9.194;2024-01-30T13:07:09;14.60;49.70
4245;DHT22;2136;48.502;9.194;2024-01-30T13:09:36;14.80;49.50
4245;DHT22;2136;48.502;9.194;2024-01-30T13:12:05;14.70;49.10
4245;DHT22;2136;48.502;9.194;2024-01-30T13:14:32;14.70;49.00
4245;DHT22;2136;48.502;9.194;2024-01-30T13:16:59;14.70;49.00
4245;DHT22;2136;48.502;9.194;2024-01-30T13:19:26;14.70;48.70
4245;DHT22;2136;48.502;9.194;2024-01-30T13:21:52;14.70;48.80
4245;DHT22;2136;48.502;9.194;2024-01-30T13:24:19;14.80;48.80
4245;DHT22;2136;48.502;9.194;2024-01-30T13:26:47;14.70;48.40
4245;DHT22;2136;48.502;9.194;2024-01-30T13:29:15;14.60;48.30
4245;DHT22;2136;48.502;9.194;2024-01-30T13:31:42;14.60;48.50
4245;DHT22;2136;48.502;9.194;2024-01-30T13:34:11;14.60;48.80
4245;DHT22;2136;48.502;9.194;2024-01-30T13:36:39;14.50;48.60
4245;DHT22;2136;48.502;9.194;2024-01-30T13:39:06;14.60;48.80
4245;DHT22;2136;48.502;9.194;2024-01-30T13:41:36;14.70;49.00
4245;DHT22;2136;48.502;9.194;2024-01-30T13:44:03;14.60;49.10
4245;DHT22;2136;48.502;9.194;2024-01-30T13:46:31;14.60;49.00
4245;DHT22;2136;48.502;9.194;2024-01-30T13:48:58;14.70;49.10
4245;DHT22;2136;48.502;9.194;2024-01-30T13:51:25;14.70;49.10
4245;DHT22;2136;48.502;9.194;2024-01-30T13:53:52;14.70;49.20
4245;DHT22;2136;48.502;9.194;2024-01-30T13:56:19;14.60;49.40
4245;DHT22;2136;48.502;9.194;2024-01-30T13:58:48;14.70;49.90
4245;DHT22;2136;48.502;9.194;2024-01-30T14:01:15;14.60;50.00
4245;DHT22;2136;48.502;9.194;2024-01-30T14:03:43;14.60;50.30
4245;DHT22;2136;48.502;9.194;2024-01-30T14:06:10;14.60;50.40
4245;DHT22;2136;48.502;9.194;2024-01-30T14:08:37;14.70;50.80
4245;DHT22;2136;48.502;9.194;2024-01-30T14:11:04;14.70;50.70
4245;DHT22;2136;48.502;9.194;2024-01-30T14:13:31;14.80;50.40
4245;DHT22;2136;48.502;9.194;2024-01-30T14:15:58;14.90;50.10
4245;DHT22;2136;48.502;9.194;2024-01-30T14:18:25;15.00;49.90
4245;DHT22;2136;48.502;9.194;2024-01-30T14:20:53;15.10;49.80
4245;DHT22;2136;48.502;9.194;2024-01-30T14:23:20;15.30;49.50
4245;DHT22;2136;48.502;9.194;2024-01-30T14:25:47;15.40;49.20
4245;DHT22;2136;48.502;9.194;2024-01-30T14:28:14;15.30;48.60
4245;DHT22;2136;48.502;9.194;2024-01-30T14:30:41;15.30;48.00
4245;DHT22;2136;48.502;9.194;2024-01-30T14:33:08;15.40;47.90
4245;DHT22;2136;48.502;9.194;2024-01-30T14:35:34;15.30;48.00
4245;DHT22;2136;48.502;9.194;2024-01-30T14:38:03;15.30;48.10
4245;DHT22;2136;48.502;9.194;2024-01-30T14:40:33;15.30;47.70
4245;DHT22;2136;48.502;9.194;2024-01-30T14:42:59;15.30;46.90
4245;DHT22;2136;48.502;9.194;2024-01-30T14:45:26;15.30;46.70
4245;DHT22;2136;48.502;9.194;2024-01-30T14:47:53;15.30;46.70
4245;DHT22;2136;48.502;9.194;2024-01-30T14:50:21;15.20;46.50
4245;DHT22;2136;48.502;9.194;2024-01-30T14:52:48;15.20;46.50
4245;DHT22;2136;48.502;9.194;2024-01-30T14:55:16;15.10;46.40
4245;DHT22;2136;48.502;9.194;2024-01-30T14:57:44;15.10;46.60
4245;DHT22;2136;48.502;9.194;2024-01-30T15:00:12;15.10;47.10
4245;DHT22;2136;48.502;9.194;2024-01-30T15:02:39;14.90;47.20
4245;DHT22;2136;48.502;9.194;2024-01-30T15:05:06;14.80;47.40
4245;DHT22;2136;48.502;9.194;2024-01-30T15:07:33;14.70;48.00
4245;DHT22;2136;48.502;9.194;2024-01-30T15:10:01;14.60;47.10
4245;DHT22;2136;48.502;9.194;2024-01-30T15:12:30;14.50;47.40
4245;DHT22;2136;48.502;9.194;2024-01-30T15:14:57;14.40;46.40
4245;DHT22;2136;48.502;9.194;2024-01-30T15:17:23;14.30;46.20
4245;DHT22;2136;48.502;9.194;2024-01-30T15:19:50;14.20;46.10
4245;DHT22;2136;48.502;9.194;2024-01-30T15:22:17;14.10;46.20
4245;DHT22;2136;48.502;9.194;2024-01-30T15:24:44;14.00;46.20
4245;DHT22;2136;48.502;9.194;2024-01-30T15:27:11;13.90;46.10
4245;DHT22;2136;48.502;9.194;2024-01-30T15:29:39;13.90;46.30
4245;DHT22;2136;48.502;9.194;2024-01-30T15:32:06;13.80;46.90
4245;DHT22;2136;48.502;9.194;2024-01-30T15:34:33;13.70;46.40
4245;DHT22;2136;48.502;9.194;2024-01-30T15:36:59;13.60;46.90
4245;DHT22;2136;48.502;9.194;2024-01-30T15:39:26;13.50;47.40
4245;DHT22;2136;48.502;9.194;2024-01-30T15:41:53;13.50;48.60
4245;DHT22;2136;48.502;9.194;2024-01-30T15:44:20;13.30;49.30
4245;DHT22;2136;48.502;9.194;2024-01-30T15:46:48;13.20;50.10
4245;DHT22;2136;48.502;9.194;2024-01-30T15:49:15;13.10;50.60
4245;DHT22;2136;48.502;9.194;2024-01-30T15:51:42;13.10;51.80
4245;DHT22;2136;48.502;9.194;2024-01-30T15:54:08;13.00;51.80
4245;DHT22;2136;48.502;9.194;2024-01-30T15:56:35;12.90;51.70
4245;DHT22;2136;48.502;9.194;2024-01-30T15:59:02;12.70;51.90
4245;DHT22;2136;48.502;9.194;2024-01-30T16:01:29;12.60;52.50
4245;DHT22;2136;48.502;9.194;2024-01-30T16:03:57;12.50;53.00
4245;DHT22;2136;48.502;9.194;2024-01-30T16:06:23;12.40;53.40
4245;DHT22;2136;48.502;9.194;2024-01-30T16:08:50;12.40;53.40
4245;DHT22;2136;48.502;9.194;2024-01-30T16:11:17;12.30;53.70